createdAt,value
2019-03-12T00:01:06.416Z,70.40
2019-03-12T00:03:33.329Z,70.40
2019-03-12T00:06:00.255Z,70.60
2019-03-12T00:08:27.183Z,70.70
2019-03-12T00:10:54.113Z,70.70
2019-03-12T00:13:21.116Z,70.90
2019-03-12T00:15:48.050Z,70.60
2019-03-12T00:18:15.002Z,70.50
2019-03-12T00:20:41.945Z,71.00
2019-03-12T00:23:08.876Z,70.80
2019-03-12T00:25:35.805Z,71.60
2019-03-12T00:28:02.846Z,71.90
2019-03-12T00:30:29.746Z,70.90
2019-03-12T00:32:56.665Z,71.40
2019-03-12T00:35:23.773Z,71.40
2019-03-12T00:37:50.712Z,71.60
2019-03-12T00:40:17.714Z,71.60
2019-03-12T00:42:44.615Z,71.60
2019-03-12T00:45:11.574Z,71.80
2019-03-12T00:47:39.421Z,72.00
2019-03-12T00:50:06.593Z,72.60
2019-03-12T00:52:34.617Z,73.90
2019-03-12T00:55:01.545Z,72.70
2019-03-12T00:57:28.549Z,72.80
2019-03-12T00:59:56.507Z,73.00
2019-03-12T01:02:22.386Z,73.00
2019-03-12T01:04:49.385Z,73.60
2019-03-12T01:07:16.318Z,74.10
2019-03-12T01:09:43.308Z,74.70
2019-03-12T01:12:10.252Z,75.20
2019-03-12T01:14:37.866Z,75.40
2019-03-12T01:17:04.794Z,75.30
2019-03-12T01:19:31.751Z,75.50
2019-03-12T01:21:58.673Z,75.80
2019-03-12T01:24:25.593Z,75.60
2019-03-12T01:26:52.555Z,75.70
2019-03-12T01:29:19.500Z,75.30
2019-03-12T01:31:46.446Z,75.60
2019-03-12T01:34:13.383Z,75.60
2019-03-12T01:36:40.331Z,75.40
2019-03-12T01:39:07.254Z,75.50
2019-03-12T01:41:34.168Z,75.70
2019-03-12T01:44:01.107Z,75.90
2019-03-12T01:46:28.043Z,76.20
2019-03-12T01:48:55.296Z,76.50
2019-03-12T01:51:22.220Z,76.30
2019-03-12T01:53:49.148Z,76.50
2019-03-12T01:56:16.136Z,76.70
2019-03-12T01:58:43.066Z,76.90
2019-03-12T02:01:09.998Z,76.80
2019-03-12T02:03:36.921Z,76.90
2019-03-12T02:06:03.898Z,76.70
2019-03-12T02:08:30.943Z,76.60
2019-03-12T02:10:57.907Z,76.60
2019-03-12T02:13:24.834Z,76.60
2019-03-12T02:15:51.754Z,76.50
2019-03-12T02:18:18.733Z,76.50
2019-03-12T02:20:45.681Z,76.40
2019-03-12T02:23:12.605Z,76.30
2019-03-12T02:25:39.544Z,76.30
2019-03-12T02:28:06.470Z,76.10
2019-03-12T02:30:33.418Z,76.20
2019-03-12T02:33:00.331Z,76.10
2019-03-12T02:35:27.255Z,76.20
2019-03-12T02:37:54.161Z,76.00
2019-03-12T02:40:21.106Z,76.00
2019-03-12T02:42:48.050Z,75.80
2019-03-12T02:45:15.007Z,75.40
2019-03-12T02:47:41.964Z,75.60
2019-03-12T02:50:09.616Z,75.30
2019-03-12T02:52:36.537Z,75.60
2019-03-12T02:55:03.965Z,75.80
2019-03-12T02:57:30.878Z,76.00
2019-03-12T02:59:57.809Z,76.00
2019-03-12T03:02:24.791Z,75.90
2019-03-12T03:04:54.251Z,76.00
2019-03-12T03:07:41.029Z,75.70
2019-03-12T03:10:09.066Z,75.90
2019-03-12T03:12:35.985Z,76.10
2019-03-12T03:15:09.171Z,76.70
2019-03-12T03:17:36.066Z,76.50
2019-03-12T03:20:03.643Z,76.80
2019-03-12T03:22:30.590Z,76.50
2019-03-12T03:24:57.498Z,76.70
2019-03-12T03:27:24.423Z,77.00
2019-03-12T03:29:51.635Z,76.60
2019-03-12T03:32:18.558Z,76.80
2019-03-12T03:34:45.502Z,77.00
2019-03-12T03:37:12.446Z,76.70
2019-03-12T03:39:39.353Z,76.60
2019-03-12T03:42:06.274Z,76.20
2019-03-12T03:44:33.222Z,76.40
2019-03-12T03:47:00.156Z,76.80
2019-03-12T03:49:27.078Z,77.10
2019-03-12T03:51:54.360Z,77.10
2019-03-12T03:54:21.286Z,77.10
2019-03-12T03:56:48.250Z,77.50
2019-03-12T03:59:15.209Z,77.90
2019-03-12T04:01:42.132Z,78.10
2019-03-12T04:04:09.071Z,78.20
2019-03-12T04:06:36.018Z,78.80
2019-03-12T04:09:03.920Z,78.50
2019-03-12T04:11:30.847Z,78.80
2019-03-12T04:13:57.804Z,78.60
2019-03-12T04:16:24.704Z,78.40
2019-03-12T04:18:51.620Z,77.90
2019-03-12T04:21:18.569Z,77.40
2019-03-12T04:23:45.473Z,77.50
2019-03-12T04:26:12.413Z,77.50
2019-03-12T04:28:39.367Z,77.80
2019-03-12T04:31:06.288Z,78.30
2019-03-12T04:33:44.893Z,78.50
2019-03-12T04:36:11.807Z,78.90
2019-03-12T04:38:38.737Z,79.10
2019-03-12T04:41:05.688Z,79.10
2019-03-12T04:43:32.628Z,79.20
2019-03-12T04:45:59.569Z,79.30
2019-03-12T04:48:26.569Z,80.20
2019-03-12T04:50:53.491Z,80.20
2019-03-12T04:53:20.846Z,79.90
2019-03-12T04:55:47.779Z,80.00
2019-03-12T04:58:14.695Z,80.40
2019-03-12T05:00:41.615Z,80.90
2019-03-12T05:03:08.670Z,80.10
2019-03-12T05:05:35.570Z,80.30
2019-03-12T05:08:02.503Z,80.70
2019-03-12T05:10:29.449Z,80.70
2019-03-12T05:12:56.381Z,80.80
2019-03-12T05:15:23.334Z,80.90
2019-03-12T05:17:50.293Z,81.10
2019-03-12T05:20:18.219Z,80.90
2019-03-12T05:22:45.153Z,81.10
2019-03-12T05:25:12.124Z,81.00
2019-03-12T05:27:39.055Z,80.90
2019-03-12T05:30:08.170Z,80.90
2019-03-12T05:32:35.107Z,81.00
2019-03-12T05:35:02.066Z,81.30
2019-03-12T05:37:28.992Z,81.70
2019-03-12T05:39:55.953Z,81.20
2019-03-12T05:42:22.861Z,81.00
2019-03-12T05:44:49.808Z,81.50
2019-03-12T05:47:16.749Z,81.20
2019-03-12T05:49:43.673Z,80.90
2019-03-12T05:52:10.605Z,79.90
2019-03-12T05:54:37.996Z,81.20
2019-03-12T05:57:04.919Z,81.40
2019-03-12T05:59:31.830Z,81.70
2019-03-12T06:01:58.786Z,81.60
2019-03-12T06:04:25.756Z,81.70
2019-03-12T06:06:52.710Z,82.00
2019-03-12T06:09:29.798Z,82.00
2019-03-12T06:11:46.585Z,82.10
2019-03-12T06:14:14.453Z,82.10
2019-03-12T06:16:41.480Z,82.00
2019-03-12T06:19:08.397Z,82.10
2019-03-12T06:21:35.409Z,82.00
2019-03-12T06:24:02.339Z,81.90
2019-03-12T06:26:29.266Z,82.50
2019-03-12T06:28:56.177Z,82.20
2019-03-12T06:31:30.627Z,82.30
2019-03-12T06:34:02.728Z,82.40
2019-03-12T06:36:40.052Z,82.40
2019-03-12T06:39:13.552Z,81.70
2019-03-12T06:41:48.150Z,81.50
2019-03-12T06:44:25.740Z,81.10
2019-03-12T06:47:13.335Z,80.90
2019-03-12T06:49:46.334Z,80.80
2019-03-12T06:52:25.646Z,81.00
2019-03-12T06:54:59.459Z,80.50
2019-03-12T06:57:32.606Z,81.00
2019-03-12T07:00:08.068Z,80.70
2019-03-12T07:02:43.033Z,80.40
2019-03-12T07:05:32.458Z,80.00
2019-03-12T07:08:09.746Z,79.80
2019-03-12T07:10:56.289Z,79.80
2019-03-12T07:13:42.832Z,79.40
2019-03-12T07:16:19.495Z,78.20
2019-03-12T07:18:52.108Z,77.30
2019-03-12T07:21:25.153Z,75.80
2019-03-12T07:24:17.707Z,74.60
2019-03-12T07:26:50.400Z,73.60
2019-03-12T07:29:30.618Z,72.40
2019-03-12T07:32:03.319Z,70.90
2019-03-12T07:34:37.245Z,70.60
2019-03-12T07:37:18.188Z,70.50
2019-03-12T07:39:54.933Z,69.70
2019-03-12T07:42:34.774Z,68.80
2019-03-12T07:45:24.083Z,68.50
2019-03-12T07:47:56.776Z,67.10
2019-03-12T07:50:31.232Z,65.20
2019-03-12T07:53:23.785Z,63.50
2019-03-12T07:56:08.032Z,64.30
2019-03-12T07:58:43.440Z,63.10
2019-03-12T08:01:29.994Z,62.20
2019-03-12T08:04:19.368Z,61.40
2019-03-12T08:06:52.093Z,60.30
2019-03-12T08:09:24.586Z,59.80
2019-03-12T08:11:57.758Z,59.00
2019-03-12T08:14:37.931Z,58.50
2019-03-12T08:17:10.660Z,58.30
2019-03-12T08:19:46.724Z,57.80
2019-03-12T08:22:19.284Z,57.40
2019-03-12T08:24:52.015Z,57.10
2019-03-12T08:27:26.649Z,56.40
2019-03-12T08:30:15.212Z,55.40
2019-03-12T08:33:06.536Z,54.40
2019-03-12T08:35:39.154Z,53.50
2019-03-12T08:38:26.674Z,54.00
2019-03-12T08:41:07.771Z,53.60
2019-03-12T08:43:42.654Z,53.50
2019-03-12T08:46:38.736Z,52.90
2019-03-12T08:49:13.209Z,52.10
2019-03-12T08:51:50.430Z,51.30
2019-03-12T08:54:25.035Z,50.90
2019-03-12T08:57:14.876Z,50.60
2019-03-12T08:59:52.731Z,50.50
2019-03-12T09:02:30.016Z,48.90
2019-03-12T09:05:20.376Z,48.80
2019-03-12T09:08:06.941Z,49.10
2019-03-12T09:10:49.271Z,48.50
2019-03-12T09:13:21.852Z,46.40
2019-03-12T09:15:57.256Z,43.40
2019-03-12T09:18:31.528Z,41.60
2019-03-12T09:21:06.044Z,39.10
2019-03-12T09:23:38.633Z,38.10
2019-03-12T09:26:12.360Z,36.40
2019-03-12T09:28:44.277Z,35.10
2019-03-12T09:31:23.255Z,34.40
2019-03-12T09:33:55.936Z,34.00
2019-03-12T09:36:31.768Z,33.00
2019-03-12T09:39:07.216Z,30.90
2019-03-12T09:41:44.157Z,30.40
2019-03-12T09:44:24.225Z,29.40
2019-03-12T09:46:57.677Z,29.20
2019-03-12T09:49:30.785Z,29.20
2019-03-12T09:52:05.833Z,29.00
2019-03-12T09:54:40.522Z,27.60
2019-03-12T09:57:12.732Z,27.10
2019-03-12T09:59:45.392Z,27.30
2019-03-12T10:02:23.316Z,27.70
2019-03-12T10:04:56.001Z,27.10
2019-03-12T10:07:30.831Z,25.90
2019-03-12T10:10:08.255Z,26.20
2019-03-12T10:12:51.779Z,26.10
2019-03-12T10:15:40.196Z,25.90
2019-03-12T10:18:17.817Z,25.80
2019-03-12T10:20:52.032Z,25.10
2019-03-12T10:23:29.764Z,25.20
2019-03-12T10:26:11.140Z,25.00
2019-03-12T10:28:43.869Z,25.30
2019-03-12T10:31:31.220Z,25.30
2019-03-12T10:34:08.838Z,24.90
2019-03-12T10:36:42.065Z,24.50
2019-03-12T10:39:26.141Z,24.10
2019-03-12T10:41:58.833Z,24.60
2019-03-12T10:44:32.560Z,24.60
2019-03-12T10:47:06.600Z,23.90
2019-03-12T10:49:37.798Z,23.00
2019-03-12T10:52:00.527Z,22.80
2019-03-12T10:54:27.466Z,23.30
2019-03-12T10:56:54.432Z,23.10
2019-03-12T10:59:22.835Z,23.40
2019-03-12T11:01:49.751Z,24.40
2019-03-12T11:04:16.693Z,24.90
2019-03-12T11:06:43.645Z,25.40
2019-03-12T11:09:10.565Z,25.60
2019-03-12T11:11:37.501Z,25.70
2019-03-12T11:14:04.434Z,25.00
2019-03-12T11:16:31.376Z,25.40
2019-03-12T11:18:58.419Z,26.40
2019-03-12T11:21:25.405Z,26.60
2019-03-12T11:23:52.334Z,27.40
2019-03-12T11:26:19.266Z,26.60
2019-03-12T11:28:46.209Z,26.50
2019-03-12T11:31:13.116Z,27.80
2019-03-12T11:33:40.070Z,26.90
2019-03-12T11:36:06.987Z,26.90
2019-03-12T11:38:34.005Z,28.00
2019-03-12T11:41:01.026Z,26.80
2019-03-12T11:43:27.874Z,24.80
2019-03-12T11:45:54.794Z,23.70
2019-03-12T11:48:22.135Z,24.20
2019-03-12T11:50:48.671Z,24.30
2019-03-12T11:53:15.600Z,25.40
2019-03-12T11:55:42.791Z,25.50
2019-03-12T11:58:09.512Z,26.20
2019-03-12T12:00:41.420Z,25.30
2019-03-12T12:03:08.468Z,25.20
2019-03-12T12:05:35.425Z,25.40
2019-03-12T12:08:02.389Z,25.10
2019-03-12T12:10:29.343Z,25.20
2019-03-12T12:12:56.393Z,25.80
2019-03-12T12:15:23.320Z,25.40
2019-03-12T12:17:50.294Z,26.20
2019-03-12T12:20:28.937Z,26.50
2019-03-12T12:22:44.635Z,25.90
2019-03-12T12:25:12.396Z,25.60
2019-03-12T12:27:39.386Z,25.50
2019-03-12T12:30:07.838Z,25.40
2019-03-12T12:32:34.785Z,24.70
2019-03-12T12:35:01.731Z,24.60
2019-03-12T12:37:28.665Z,23.90
2019-03-12T12:39:55.693Z,24.70
2019-03-12T12:42:22.678Z,25.50
2019-03-12T12:44:49.757Z,25.20
2019-03-12T12:47:16.725Z,25.00
2019-03-12T12:49:43.796Z,25.90
2019-03-12T12:52:10.651Z,26.10
2019-03-12T12:54:37.613Z,26.10
2019-03-12T12:57:04.558Z,26.40
2019-03-12T12:59:31.469Z,26.30
2019-03-12T13:01:58.642Z,26.90
2019-03-12T13:04:25.588Z,27.00
2019-03-12T13:06:52.535Z,27.50
2019-03-12T13:09:19.542Z,27.10
2019-03-12T13:11:46.474Z,27.10
2019-03-12T13:14:13.389Z,26.50
2019-03-12T13:16:40.350Z,26.30
2019-03-12T13:19:07.312Z,26.20
2019-03-12T13:21:34.228Z,26.60
2019-03-12T13:24:01.598Z,27.00
2019-03-12T13:26:28.603Z,27.60
2019-03-12T13:28:55.561Z,27.70
2019-03-12T13:31:22.508Z,27.80
2019-03-12T13:33:49.466Z,28.00
2019-03-12T13:36:16.792Z,28.20
2019-03-12T13:38:46.270Z,28.20
2019-03-12T13:41:10.868Z,27.80
2019-03-12T13:43:37.841Z,28.20
2019-03-12T13:46:04.784Z,28.90
2019-03-12T13:48:32.495Z,29.40
2019-03-12T13:50:59.540Z,29.90
2019-03-12T13:53:26.534Z,29.80
2019-03-12T13:55:53.398Z,30.10
2019-03-12T13:58:20.311Z,30.00
2019-03-12T14:00:47.246Z,30.10
2019-03-12T14:03:14.337Z,30.60
2019-03-12T14:05:41.326Z,30.40
2019-03-12T14:08:08.332Z,31.00
2019-03-12T14:10:35.285Z,30.50
2019-03-12T14:13:02.222Z,30.90
2019-03-12T14:15:29.169Z,30.50
2019-03-12T14:17:56.099Z,30.60
2019-03-12T14:20:41.656Z,31.00
2019-03-12T14:23:08.884Z,31.00
2019-03-12T14:25:35.844Z,31.20
2019-03-12T14:28:02.794Z,30.60
2019-03-12T14:30:29.833Z,30.90
2019-03-12T14:32:56.729Z,31.00
2019-03-12T14:35:23.763Z,31.40
2019-03-12T14:37:50.709Z,31.60
2019-03-12T14:40:17.649Z,31.40
2019-03-12T14:42:44.595Z,31.50
2019-03-12T14:45:11.544Z,31.40
2019-03-12T14:47:38.466Z,31.80
2019-03-12T14:50:07.665Z,32.40
2019-03-12T14:52:38.416Z,32.20
2019-03-12T14:55:05.544Z,32.20
2019-03-12T14:57:32.479Z,32.70
2019-03-12T14:59:59.398Z,32.80
2019-03-12T15:02:26.342Z,33.40
2019-03-12T15:04:53.568Z,32.50
2019-03-12T15:07:20.516Z,31.20
2019-03-12T15:09:47.433Z,30.70
2019-03-12T15:12:14.404Z,30.80
2019-03-12T15:14:41.337Z,31.10
2019-03-12T15:17:08.505Z,31.40
2019-03-12T15:19:35.500Z,31.10
2019-03-12T15:22:02.484Z,31.50
2019-03-12T15:24:29.405Z,31.60
2019-03-12T15:26:56.356Z,31.50
2019-03-12T15:29:23.289Z,31.30
2019-03-12T15:32:03.086Z,31.80
2019-03-12T15:34:17.188Z,32.20
2019-03-12T15:36:45.471Z,32.20
2019-03-12T15:39:11.056Z,31.60
2019-03-12T15:41:38.009Z,31.20
2019-03-12T15:44:04.936Z,32.10
2019-03-12T15:46:31.896Z,32.30
2019-03-12T15:48:58.844Z,32.00
2019-03-12T15:51:25.833Z,32.30
2019-03-12T15:53:52.756Z,32.60
2019-03-12T15:56:19.709Z,33.20
2019-03-12T15:58:46.903Z,32.70
2019-03-12T16:01:13.851Z,32.90
2019-03-12T16:03:42.008Z,33.40
2019-03-12T16:06:09.297Z,34.30
2019-03-12T16:08:36.222Z,33.70
2019-03-12T16:11:03.153Z,34.00
2019-03-12T16:13:30.089Z,34.00
2019-03-12T16:15:57.087Z,34.20
2019-03-12T16:18:23.951Z,34.40
2019-03-12T16:20:50.926Z,34.50
2019-03-12T16:23:17.855Z,34.80
2019-03-12T16:25:44.799Z,35.00
2019-03-12T16:28:11.789Z,35.10
2019-03-12T16:30:38.733Z,35.30
2019-03-12T16:33:05.696Z,35.90
2019-03-12T16:35:32.608Z,34.80
2019-03-12T16:37:59.533Z,35.80
2019-03-12T16:40:26.508Z,36.10
2019-03-12T16:42:53.424Z,36.40
2019-03-12T16:45:20.425Z,36.40
2019-03-12T16:47:47.403Z,36.50
2019-03-12T16:50:14.338Z,36.80
2019-03-12T16:52:41.277Z,37.00
2019-03-12T16:55:08.305Z,37.00
2019-03-12T16:57:35.234Z,37.30
2019-03-12T17:00:07.114Z,37.30
2019-03-12T17:02:29.128Z,37.60
2019-03-12T17:04:56.047Z,38.10
2019-03-12T17:07:23.196Z,38.50
2019-03-12T17:09:50.144Z,38.70
2019-03-12T17:12:17.092Z,38.90
2019-03-12T17:14:44.040Z,38.80
2019-03-12T17:17:10.976Z,38.90
2019-03-12T17:19:37.916Z,39.40
2019-03-12T17:22:04.868Z,38.90
2019-03-12T17:24:31.854Z,39.10
2019-03-12T17:26:58.773Z,39.30
2019-03-12T17:29:25.733Z,39.30
2019-03-12T17:31:52.676Z,39.60
2019-03-12T17:34:19.589Z,39.60
2019-03-12T17:36:46.506Z,39.40
2019-03-12T17:39:13.437Z,39.60
2019-03-12T17:41:40.377Z,38.50
2019-03-12T17:44:07.276Z,39.80
2019-03-12T17:46:34.215Z,40.20
2019-03-12T17:49:01.143Z,39.90
2019-03-12T17:51:28.064Z,39.80
2019-03-12T17:53:55.007Z,39.80
2019-03-12T17:56:22.045Z,40.10
2019-03-12T17:58:48.970Z,40.10
2019-03-12T18:01:16.381Z,40.30
2019-03-12T18:03:43.304Z,40.00
2019-03-12T18:06:10.221Z,40.00
2019-03-12T18:08:38.478Z,39.90
2019-03-12T18:11:05.447Z,40.00
2019-03-12T18:13:32.390Z,39.80
2019-03-12T18:15:59.386Z,39.70
2019-03-12T18:18:26.290Z,39.70
2019-03-12T18:20:53.223Z,39.80
2019-03-12T18:23:20.240Z,39.70
2019-03-12T18:25:47.497Z,39.70
2019-03-12T18:28:14.413Z,40.10
2019-03-12T18:30:41.371Z,40.10
2019-03-12T18:33:08.349Z,40.50
2019-03-12T18:35:35.257Z,40.50
2019-03-12T18:38:02.204Z,40.40
2019-03-12T18:40:29.137Z,40.70
2019-03-12T18:42:56.064Z,40.70
2019-03-12T18:45:23.024Z,40.70
2019-03-12T18:47:49.949Z,40.70
2019-03-12T18:50:16.909Z,40.80
2019-03-12T18:52:43.938Z,41.10
2019-03-12T18:55:38.619Z,40.80
2019-03-12T18:58:05.239Z,40.80
2019-03-12T19:00:32.175Z,40.80
2019-03-12T19:02:59.119Z,40.30
2019-03-12T19:05:28.257Z,40.10
2019-03-12T19:07:52.988Z,40.00
2019-03-12T19:10:20.371Z,39.80
2019-03-12T19:12:47.319Z,39.30
2019-03-12T19:15:14.261Z,39.50
2019-03-12T19:17:41.207Z,39.40
2019-03-12T19:20:08.204Z,38.40
2019-03-12T19:22:35.123Z,38.70
2019-03-12T19:25:02.075Z,38.50
2019-03-12T19:27:29.021Z,38.40
2019-03-12T19:29:55.952Z,38.10
2019-03-12T19:32:31.311Z,38.50
2019-03-12T19:34:58.259Z,38.30
2019-03-12T19:37:25.166Z,38.40
2019-03-12T19:39:52.128Z,38.00
2019-03-12T19:42:19.019Z,38.10
2019-03-12T19:44:45.941Z,38.10
2019-03-12T19:47:12.871Z,38.30
2019-03-12T19:49:39.803Z,38.30
2019-03-12T19:52:06.742Z,38.30
2019-03-12T19:54:33.705Z,38.10
2019-03-12T19:57:00.643Z,38.20
2019-03-12T19:59:27.592Z,38.30
2019-03-12T20:01:55.611Z,38.40
2019-03-12T20:04:22.537Z,38.30
2019-03-12T20:06:49.478Z,38.50
2019-03-12T20:09:25.827Z,38.70
2019-03-12T20:12:19.453Z,37.60
2019-03-12T20:15:20.914Z,38.70
2019-03-12T20:18:23.186Z,39.00
2019-03-12T20:21:09.844Z,39.20
2019-03-12T20:23:48.399Z,39.10
2019-03-12T20:26:34.636Z,39.10
2019-03-12T20:29:29.521Z,38.50
2019-03-12T20:32:27.946Z,38.80
2019-03-12T20:35:14.312Z,38.70
2019-03-12T20:38:10.561Z,40.50
2019-03-12T20:41:20.200Z,39.50
2019-03-12T20:44:08.369Z,39.00
2019-03-12T20:47:03.702Z,39.10
2019-03-12T20:49:56.117Z,38.90
2019-03-12T20:52:48.525Z,38.10
2019-03-12T20:55:49.019Z,38.00
2019-03-12T20:58:36.932Z,37.50
2019-03-12T21:01:34.189Z,37.60
2019-03-12T21:04:26.504Z,38.00
2019-03-12T21:07:04.998Z,37.80
2019-03-12T21:09:58.192Z,38.50
2019-03-12T21:13:02.090Z,37.90
2019-03-12T21:15:48.464Z,37.20
2019-03-12T21:18:42.752Z,37.50
2019-03-12T21:21:41.569Z,37.00
2019-03-12T21:24:39.587Z,36.60
2019-03-12T21:27:22.121Z,37.10
2019-03-12T21:29:49.466Z,36.90
2019-03-12T21:32:16.895Z,36.90
2019-03-12T21:34:43.839Z,36.80
2019-03-12T21:37:10.888Z,37.00
2019-03-12T21:39:37.829Z,36.60
2019-03-12T21:42:05.054Z,36.80
2019-03-12T21:44:32.172Z,36.80
2019-03-12T21:46:58.945Z,36.70
2019-03-12T21:49:25.892Z,36.80
2019-03-12T21:51:52.868Z,36.70
2019-03-12T21:54:19.808Z,36.60
2019-03-12T21:56:46.734Z,36.70
2019-03-12T21:59:13.680Z,36.80
2019-03-12T22:01:40.658Z,36.90
2019-03-12T22:04:07.622Z,36.70
2019-03-12T22:06:34.554Z,36.40
2019-03-12T22:09:01.488Z,36.40
2019-03-12T22:11:28.432Z,37.30
2019-03-12T22:13:55.968Z,37.00
2019-03-12T22:16:22.916Z,36.90
2019-03-12T22:18:49.843Z,36.60
2019-03-12T22:21:17.982Z,37.30
2019-03-12T22:23:47.257Z,37.20
2019-03-12T22:26:14.240Z,37.20
2019-03-12T22:28:41.255Z,37.50
2019-03-12T22:31:08.234Z,40.00
2019-03-12T22:33:35.172Z,38.10
2019-03-12T22:36:02.125Z,36.20
2019-03-12T22:38:29.096Z,36.00
2019-03-12T22:40:56.049Z,36.40
2019-03-12T22:43:22.963Z,36.20
2019-03-12T22:45:49.924Z,36.30
2019-03-12T22:48:16.898Z,37.00
2019-03-12T22:50:43.857Z,37.60
2019-03-12T22:53:10.792Z,37.50
2019-03-12T22:55:37.722Z,37.10
2019-03-12T22:58:04.687Z,37.00
2019-03-12T23:00:36.918Z,37.40
2019-03-12T23:03:03.840Z,37.80
2019-03-12T23:05:30.796Z,37.70
2019-03-12T23:07:57.719Z,38.10
2019-03-12T23:10:24.783Z,38.50
2019-03-12T23:12:51.799Z,38.90
2019-03-12T23:15:19.507Z,38.40
2019-03-12T23:17:46.431Z,39.20
2019-03-12T23:20:13.403Z,38.70
2019-03-12T23:22:40.325Z,39.10
2019-03-12T23:25:08.075Z,38.80
2019-03-12T23:27:34.933Z,39.40
2019-03-12T23:30:02.004Z,40.00
2019-03-12T23:32:28.947Z,40.80
2019-03-12T23:34:55.962Z,41.80
2019-03-12T23:37:22.788Z,43.70
2019-03-12T23:39:49.722Z,44.30
2019-03-12T23:42:16.694Z,45.00
2019-03-12T23:44:43.601Z,46.40
2019-03-12T23:47:10.534Z,47.20
2019-03-12T23:49:37.481Z,48.80
2019-03-12T23:52:04.413Z,49.50
2019-03-12T23:54:31.345Z,50.00
2019-03-12T23:56:58.289Z,50.90
2019-03-12T23:59:25.192Z,51.10
